sensor_id;sensor_type;location;lat;lon;timestamp;P1;durP1;ratioP1;P2;durP2;ratioP2
78156;SDS011;67400;49.360;8.266;2023-01-29T08:51:55;26.20;;;14.90;;
78156;SDS011;67400;49.360;8.266;2023-01-29T08:52:57;26.55;;;14.10;;
78156;SDS011;67400;49.360;8.266;2023-01-29T08:54:04;20.65;;;11.38;;
78156;SDS011;67400;49.360;8.266;2023-01-29T08:55:06;16.45;;;10.55;;
78156;SDS011;67400;49.360;8.266;2023-01-29T08:56:07;17.52;;;9.68;;
78156;SDS011;67400;49.360;8.266;2023-01-29T08:57:08;17.23;;;9.85;;
78156;SDS011;67400;49.360;8.266;2023-01-29T08:58:10;16.02;;;8.63;;
78156;SDS011;67400;49.360;8.266;2023-01-29T08:59:11;15.15;;;8.15;;
78156;SDS011;67400;49.360;8.266;2023-01-29T09:00:12;12.88;;;7.30;;
78156;SDS011;67400;49.360;8.266;2023-01-29T09:01:14;13.55;;;7.22;;
78156;SDS011;67400;49.360;8.266;2023-01-29T09:02:15;17.45;;;7.80;;
78156;SDS011;67400;49.360;8.266;2023-01-29T09:03:16;13.57;;;6.80;;
78156;SDS011;67400;49.360;8.266;2023-01-29T09:04:16;14.48;;;7.72;;
78156;SDS011;67400;49.360;8.266;2023-01-29T09:05:17;12.88;;;7.25;;
78156;SDS011;67400;49.360;8.266;2023-01-29T09:06:18;16.35;;;8.25;;
78156;SDS011;67400;49.360;8.266;2023-01-29T09:07:20;15.60;;;7.78;;
78156;SDS011;67400;49.360;8.266;2023-01-29T09:08:21;13.77;;;7.35;;
78156;SDS011;67400;49.360;8.266;2023-01-29T09:09:23;15.73;;;7.50;;
78156;SDS011;67400;49.360;8.266;2023-01-29T09:10:26;13.90;;;7.40;;
78156;SDS011;67400;49.360;8.266;2023-01-29T09:11:31;16.20;;;8.15;;
78156;SDS011;67400;49.360;8.266;2023-01-29T09:12:32;17.95;;;8.55;;
78156;SDS011;67400;49.360;8.266;2023-01-29T09:13:33;17.27;;;8.63;;
78156;SDS011;67400;49.360;8.266;2023-01-29T09:14:34;17.10;;;8.38;;
78156;SDS011;67400;49.360;8.266;2023-01-29T09:15:35;14.95;;;8.27;;
78156;SDS011;67400;49.360;8.266;2023-01-29T09:16:36;14.73;;;7.97;;
78156;SDS011;67400;49.360;8.266;2023-01-29T09:17:37;14.85;;;7.47;;
78156;SDS011;67400;49.360;8.266;2023-01-29T09:18:38;15.00;;;7.47;;
78156;SDS011;67400;49.360;8.266;2023-01-29T09:19:39;14.55;;;7.80;;
78156;SDS011;67400;49.360;8.266;2023-01-29T09:20:40;15.07;;;7.78;;
78156;SDS011;67400;49.360;8.266;2023-01-29T09:21:41;14.23;;;8.13;;
78156;SDS011;67400;49.360;8.266;2023-01-29T09:22:42;15.35;;;8.23;;
78156;SDS011;67400;49.360;8.266;2023-01-29T09:23:43;15.48;;;7.95;;
78156;SDS011;67400;49.360;8.266;2023-01-29T09:24:44;13.52;;;7.75;;
78156;SDS011;67400;49.360;8.266;2023-01-29T09:25:45;14.10;;;7.18;;
78156;SDS011;67400;49.360;8.266;2023-01-29T09:26:46;13.30;;;7.78;;
78156;SDS011;67400;49.360;8.266;2023-01-29T09:27:47;15.30;;;7.80;;
78156;SDS011;67400;49.360;8.266;2023-01-29T09:28:48;13.05;;;8.00;;
78156;SDS011;67400;49.360;8.266;2023-01-29T09:29:49;12.77;;;7.28;;
78156;SDS011;67400;49.360;8.266;2023-01-29T09:30:53;13.65;;;7.45;;
78156;SDS011;67400;49.360;8.266;2023-01-29T09:31:54;11.48;;;6.95;;
78156;SDS011;67400;49.360;8.266;2023-01-29T09:32:55;11.43;;;7.15;;
78156;SDS011;67400;49.360;8.266;2023-01-29T09:33:56;14.13;;;8.38;;
78156;SDS011;67400;49.360;8.266;2023-01-29T09:34:58;11.82;;;7.00;;
78156;SDS011;67400;49.360;8.266;2023-01-29T09:36:01;12.88;;;7.13;;
78156;SDS011;67400;49.360;8.266;2023-01-29T09:37:02;11.93;;;7.32;;
78156;SDS011;67400;49.360;8.266;2023-01-29T09:38:03;17.02;;;8.07;;
78156;SDS011;67400;49.360;8.266;2023-01-29T09:39:04;15.20;;;8.75;;
78156;SDS011;67400;49.360;8.266;2023-01-29T09:40:06;17.63;;;9.23;;
78156;SDS011;67400;49.360;8.266;2023-01-29T09:41:12;13.52;;;8.77;;
78156;SDS011;67400;49.360;8.266;2023-01-29T09:42:19;16.02;;;8.38;;
78156;SDS011;67400;49.360;8.266;2023-01-29T09:43:35;14.27;;;8.20;;
78156;SDS011;67400;49.360;8.266;2023-01-29T09:44:47;17.80;;;9.00;;
78156;SDS011;67400;49.360;8.266;2023-01-29T09:45:53;12.07;;;7.70;;
78156;SDS011;67400;49.360;8.266;2023-01-29T09:46:55;12.10;;;7.63;;
78156;SDS011;67400;49.360;8.266;2023-01-29T09:47:59;16.05;;;9.43;;
78156;SDS011;67400;49.360;8.266;2023-01-29T09:49:10;16.17;;;8.77;;
78156;SDS011;67400;49.360;8.266;2023-01-29T09:50:21;18.83;;;9.50;;
78156;SDS011;67400;49.360;8.266;2023-01-29T09:51:27;14.02;;;7.80;;
78156;SDS011;67400;49.360;8.266;2023-01-29T09:52:39;12.23;;;6.93;;
78156;SDS011;67400;49.360;8.266;2023-01-29T09:53:44;10.98;;;6.72;;
78156;SDS011;67400;49.360;8.266;2023-01-29T09:54:53;12.18;;;7.10;;
78156;SDS011;67400;49.360;8.266;2023-01-29T09:55:58;12.55;;;7.05;;
78156;SDS011;67400;49.360;8.266;2023-01-29T09:57:00;12.95;;;7.32;;
78156;SDS011;67400;49.360;8.266;2023-01-29T09:58:04;14.00;;;7.57;;
78156;SDS011;67400;49.360;8.266;2023-01-29T09:59:10;14.05;;;7.40;;
78156;SDS011;67400;49.360;8.266;2023-01-29T10:00:13;14.98;;;7.22;;
78156;SDS011;67400;49.360;8.266;2023-01-29T10:01:23;12.80;;;7.40;;
78156;SDS011;67400;49.360;8.266;2023-01-29T10:02:34;11.35;;;6.72;;
78156;SDS011;67400;49.360;8.266;2023-01-29T10:04:00;13.38;;;7.00;;
78156;SDS011;67400;49.360;8.266;2023-01-29T10:09:50;13.52;;;7.55;;
78156;SDS011;67400;49.360;8.266;2023-01-29T10:13:10;16.15;;;7.90;;
78156;SDS011;67400;49.360;8.266;2023-01-29T10:14:18;15.15;;;7.80;;
78156;SDS011;67400;49.360;8.266;2023-01-29T10:15:44;11.63;;;6.45;;
78156;SDS011;67400;49.360;8.266;2023-01-29T10:23:28;16.40;;;7.32;;
78156;SDS011;67400;49.360;8.266;2023-01-29T10:24:47;15.88;;;7.43;;
78156;SDS011;67400;49.360;8.266;2023-01-29T10:25:51;15.25;;;7.03;;
78156;SDS011;67400;49.360;8.266;2023-01-29T10:26:53;14.25;;;7.05;;
78156;SDS011;67400;49.360;8.266;2023-01-29T10:27:56;13.27;;;6.60;;
78156;SDS011;67400;49.360;8.266;2023-01-29T10:28:58;13.85;;;6.63;;
78156;SDS011;67400;49.360;8.266;2023-01-29T10:30:01;14.88;;;6.95;;
78156;SDS011;67400;49.360;8.266;2023-01-29T10:31:04;17.13;;;7.60;;
78156;SDS011;67400;49.360;8.266;2023-01-29T10:32:07;12.80;;;6.35;;
78156;SDS011;67400;49.360;8.266;2023-01-29T10:33:33;12.00;;;7.03;;
78156;SDS011;67400;49.360;8.266;2023-01-29T10:34:41;13.90;;;7.00;;
78156;SDS011;67400;49.360;8.266;2023-01-29T10:35:49;13.07;;;6.72;;
78156;SDS011;67400;49.360;8.266;2023-01-29T10:36:52;12.50;;;6.88;;
78156;SDS011;67400;49.360;8.266;2023-01-29T10:37:55;15.20;;;7.25;;
78156;SDS011;67400;49.360;8.266;2023-01-29T10:38:58;14.90;;;6.85;;
78156;SDS011;67400;49.360;8.266;2023-01-29T10:46:30;17.25;;;8.00;;
78156;SDS011;67400;49.360;8.266;2023-01-29T10:47:37;18.83;;;9.15;;
78156;SDS011;67400;49.360;8.266;2023-01-29T10:48:59;25.08;;;11.98;;
78156;SDS011;67400;49.360;8.266;2023-01-29T10:53:21;10.90;;;6.10;;
78156;SDS011;67400;49.360;8.266;2023-01-29T10:55:33;14.52;;;7.28;;
78156;SDS011;67400;49.360;8.266;2023-01-29T10:56:41;19.40;;;10.55;;
78156;SDS011;67400;49.360;8.266;2023-01-29T11:00:23;22.05;;;9.05;;
78156;SDS011;67400;49.360;8.266;2023-01-29T11:01:25;12.18;;;7.07;;
78156;SDS011;67400;49.360;8.266;2023-01-29T11:02:26;13.35;;;6.60;;
78156;SDS011;67400;49.360;8.266;2023-01-29T11:03:28;14.63;;;7.50;;
78156;SDS011;67400;49.360;8.266;2023-01-29T11:04:29;14.40;;;7.30;;
78156;SDS011;67400;49.360;8.266;2023-01-29T11:05:36;14.02;;;7.03;;
78156;SDS011;67400;49.360;8.266;2023-01-29T11:06:37;11.30;;;6.35;;
78156;SDS011;67400;49.360;8.266;2023-01-29T11:07:38;14.07;;;6.97;;
78156;SDS011;67400;49.360;8.266;2023-01-29T11:08:45;13.43;;;7.18;;
78156;SDS011;67400;49.360;8.266;2023-01-29T11:09:51;16.65;;;7.72;;
78156;SDS011;67400;49.360;8.266;2023-01-29T11:11:06;14.20;;;7.97;;
78156;SDS011;67400;49.360;8.266;2023-01-29T11:12:15;16.35;;;7.93;;
78156;SDS011;67400;49.360;8.266;2023-01-29T11:13:16;15.07;;;7.70;;
78156;SDS011;67400;49.360;8.266;2023-01-29T11:14:20;17.23;;;7.40;;
78156;SDS011;67400;49.360;8.266;2023-01-29T11:15:22;18.38;;;8.52;;
78156;SDS011;67400;49.360;8.266;2023-01-29T11:16:25;15.73;;;7.65;;
78156;SDS011;67400;49.360;8.266;2023-01-29T11:17:29;15.02;;;7.22;;
78156;SDS011;67400;49.360;8.266;2023-01-29T11:18:48;13.40;;;6.93;;
78156;SDS011;67400;49.360;8.266;2023-01-29T11:21:01;13.15;;;7.43;;
78156;SDS011;67400;49.360;8.266;2023-01-29T11:22:02;14.77;;;6.95;;
78156;SDS011;67400;49.360;8.266;2023-01-29T11:23:03;14.27;;;6.68;;
78156;SDS011;67400;49.360;8.266;2023-01-29T11:24:05;12.68;;;6.75;;
78156;SDS011;67400;49.360;8.266;2023-01-29T11:25:08;14.73;;;7.38;;
78156;SDS011;67400;49.360;8.266;2023-01-29T11:26:10;14.25;;;7.15;;
78156;SDS011;67400;49.360;8.266;2023-01-29T11:27:13;17.52;;;8.40;;
78156;SDS011;67400;49.360;8.266;2023-01-29T11:28:15;13.90;;;7.38;;
78156;SDS011;67400;49.360;8.266;2023-01-29T11:29:38;14.45;;;7.30;;
78156;SDS011;67400;49.360;8.266;2023-01-29T11:30:41;15.52;;;7.40;;
78156;SDS011;67400;49.360;8.266;2023-01-29T11:31:47;14.00;;;8.02;;
78156;SDS011;67400;49.360;8.266;2023-01-29T11:32:49;17.20;;;8.35;;
78156;SDS011;67400;49.360;8.266;2023-01-29T11:39:11;13.32;;;6.78;;
78156;SDS011;67400;49.360;8.266;2023-01-29T11:41:21;11.80;;;7.00;;
78156;SDS011;67400;49.360;8.266;2023-01-29T11:42:25;14.13;;;7.20;;
78156;SDS011;67400;49.360;8.266;2023-01-29T11:43:30;14.68;;;7.53;;
78156;SDS011;67400;49.360;8.266;2023-01-29T11:44:32;14.38;;;7.10;;
78156;SDS011;67400;49.360;8.266;2023-01-29T11:45:33;13.30;;;6.60;;
78156;SDS011;67400;49.360;8.266;2023-01-29T11:46:38;13.45;;;7.50;;
78156;SDS011;67400;49.360;8.266;2023-01-29T11:47:39;12.88;;;6.80;;
78156;SDS011;67400;49.360;8.266;2023-01-29T11:48:41;14.88;;;7.40;;
78156;SDS011;67400;49.360;8.266;2023-01-29T11:49:49;14.18;;;6.30;;
78156;SDS011;67400;49.360;8.266;2023-01-29T11:50:53;14.30;;;6.75;;
78156;SDS011;67400;49.360;8.266;2023-01-29T11:52:08;12.05;;;6.78;;
78156;SDS011;67400;49.360;8.266;2023-01-29T11:55:55;10.25;;;5.95;;
78156;SDS011;67400;49.360;8.266;2023-01-29T11:56:59;11.45;;;6.38;;
78156;SDS011;67400;49.360;8.266;2023-01-29T11:58:17;13.98;;;7.05;;
78156;SDS011;67400;49.360;8.266;2023-01-29T11:59:37;15.05;;;7.10;;
78156;SDS011;67400;49.360;8.266;2023-01-29T12:00:39;13.48;;;6.47;;
78156;SDS011;67400;49.360;8.266;2023-01-29T12:01:40;12.40;;;6.43;;
78156;SDS011;67400;49.360;8.266;2023-01-29T12:02:42;12.68;;;6.90;;
78156;SDS011;67400;49.360;8.266;2023-01-29T12:03:48;12.88;;;6.78;;
78156;SDS011;67400;49.360;8.266;2023-01-29T12:04:52;15.45;;;7.78;;
78156;SDS011;67400;49.360;8.266;2023-01-29T12:05:55;14.82;;;8.43;;
78156;SDS011;67400;49.360;8.266;2023-01-29T12:06:57;14.13;;;7.25;;
78156;SDS011;67400;49.360;8.266;2023-01-29T12:07:58;13.40;;;7.07;;
78156;SDS011;67400;49.360;8.266;2023-01-29T12:09:00;13.20;;;6.07;;
78156;SDS011;67400;49.360;8.266;2023-01-29T12:10:02;11.00;;;6.60;;
78156;SDS011;67400;49.360;8.266;2023-01-29T12:11:22;15.35;;;6.85;;
78156;SDS011;67400;49.360;8.266;2023-01-29T12:12:31;12.68;;;6.53;;
78156;SDS011;67400;49.360;8.266;2023-01-29T12:13:32;11.30;;;6.28;;
78156;SDS011;67400;49.360;8.266;2023-01-29T12:14:35;13.68;;;7.50;;
78156;SDS011;67400;49.360;8.266;2023-01-29T12:15:38;13.88;;;7.40;;
78156;SDS011;67400;49.360;8.266;2023-01-29T12:16:43;13.00;;;6.95;;
78156;SDS011;67400;49.360;8.266;2023-01-29T12:17:51;14.25;;;7.10;;
78156;SDS011;67400;49.360;8.266;2023-01-29T12:19:10;15.20;;;7.38;;
78156;SDS011;67400;49.360;8.266;2023-01-29T12:20:14;10.20;;;5.93;;
78156;SDS011;67400;49.360;8.266;2023-01-29T12:23:31;14.88;;;6.47;;
78156;SDS011;67400;49.360;8.266;2023-01-29T12:24:34;12.93;;;6.70;;
78156;SDS011;67400;49.360;8.266;2023-01-29T12:30:19;11.43;;;6.57;;
78156;SDS011;67400;49.360;8.266;2023-01-29T12:34:47;14.85;;;7.13;;
78156;SDS011;67400;49.360;8.266;2023-01-29T12:35:55;12.32;;;6.60;;
78156;SDS011;67400;49.360;8.266;2023-01-29T12:37:20;11.35;;;6.80;;
78156;SDS011;67400;49.360;8.266;2023-01-29T12:38:22;13.45;;;7.13;;
78156;SDS011;67400;49.360;8.266;2023-01-29T12:39:23;12.05;;;6.70;;
78156;SDS011;67400;49.360;8.266;2023-01-29T12:40:26;13.07;;;7.13;;
78156;SDS011;67400;49.360;8.266;2023-01-29T12:42:39;14.05;;;7.22;;
78156;SDS011;67400;49.360;8.266;2023-01-29T12:43:43;14.90;;;7.53;;
78156;SDS011;67400;49.360;8.266;2023-01-29T12:45:00;15.55;;;7.65;;
78156;SDS011;67400;49.360;8.266;2023-01-29T12:46:05;12.02;;;6.28;;
78156;SDS011;67400;49.360;8.266;2023-01-29T12:47:27;12.57;;;7.10;;
78156;SDS011;67400;49.360;8.266;2023-01-29T12:48:32;14.38;;;6.70;;
78156;SDS011;67400;49.360;8.266;2023-01-29T12:49:34;16.25;;;7.43;;
78156;SDS011;67400;49.360;8.266;2023-01-29T12:50:36;15.05;;;7.07;;
78156;SDS011;67400;49.360;8.266;2023-01-29T12:51:39;14.85;;;7.35;;
78156;SDS011;67400;49.360;8.266;2023-01-29T12:56:25;12.88;;;7.00;;
78156;SDS011;67400;49.360;8.266;2023-01-29T12:58:35;12.80;;;6.28;;
78156;SDS011;67400;49.360;8.266;2023-01-29T12:59:42;12.80;;;6.68;;
78156;SDS011;67400;49.360;8.266;2023-01-29T13:00:45;15.45;;;7.38;;
78156;SDS011;67400;49.360;8.266;2023-01-29T13:01:52;13.02;;;7.25;;
78156;SDS011;67400;49.360;8.266;2023-01-29T13:03:05;14.32;;;7.00;;
78156;SDS011;67400;49.360;8.266;2023-01-29T13:04:12;13.63;;;6.55;;
78156;SDS011;67400;49.360;8.266;2023-01-29T13:05:16;14.35;;;6.38;;
78156;SDS011;67400;49.360;8.266;2023-01-29T13:06:20;12.55;;;6.88;;
78156;SDS011;67400;49.360;8.266;2023-01-29T13:07:24;12.68;;;6.80;;
78156;SDS011;67400;49.360;8.266;2023-01-29T13:08:28;15.63;;;7.65;;
78156;SDS011;67400;49.360;8.266;2023-01-29T13:09:30;17.77;;;7.78;;
78156;SDS011;67400;49.360;8.266;2023-01-29T13:10:36;12.90;;;7.05;;
78156;SDS011;67400;49.360;8.266;2023-01-29T13:11:43;13.43;;;6.30;;
78156;SDS011;67400;49.360;8.266;2023-01-29T13:12:52;11.68;;;6.55;;
78156;SDS011;67400;49.360;8.266;2023-01-29T13:13:56;11.82;;;6.47;;
78156;SDS011;67400;49.360;8.266;2023-01-29T13:15:01;11.75;;;6.75;;
78156;SDS011;67400;49.360;8.266;2023-01-29T13:16:05;11.23;;;7.05;;
78156;SDS011;67400;49.360;8.266;2023-01-29T13:17:16;12.15;;;6.15;;
78156;SDS011;67400;49.360;8.266;2023-01-29T13:28:19;13.07;;;6.50;;
78156;SDS011;67400;49.360;8.266;2023-01-29T13:29:30;13.65;;;7.10;;
78156;SDS011;67400;49.360;8.266;2023-01-29T13:32:34;14.40;;;7.75;;
78156;SDS011;67400;49.360;8.266;2023-01-29T13:34:06;12.93;;;6.60;;
78156;SDS011;67400;49.360;8.266;2023-01-29T13:40:06;13.57;;;6.57;;
78156;SDS011;67400;49.360;8.266;2023-01-29T13:43:26;14.18;;;6.72;;
78156;SDS011;67400;49.360;8.266;2023-01-29T13:45:16;14.32;;;7.60;;
78156;SDS011;67400;49.360;8.266;2023-01-29T13:47:06;14.15;;;7.50;;
78156;SDS011;67400;49.360;8.266;2023-01-29T13:59:56;11.55;;;6.32;;
78156;SDS011;67400;49.360;8.266;2023-01-29T14:01:04;15.02;;;7.10;;
78156;SDS011;67400;49.360;8.266;2023-01-29T14:03:44;12.00;;;6.30;;
78156;SDS011;67400;49.360;8.266;2023-01-29T14:04:45;11.35;;;6.43;;
78156;SDS011;67400;49.360;8.266;2023-01-29T14:06:55;14.32;;;7.20;;
78156;SDS011;67400;49.360;8.266;2023-01-29T14:10:19;15.48;;;7.47;;
78156;SDS011;67400;49.360;8.266;2023-01-29T14:11:42;12.43;;;6.50;;
78156;SDS011;67400;49.360;8.266;2023-01-29T14:15:04;14.70;;;7.18;;
78156;SDS011;67400;49.360;8.266;2023-01-29T14:16:45;11.85;;;6.47;;
78156;SDS011;67400;49.360;8.266;2023-01-29T14:20:01;15.23;;;6.85;;
78156;SDS011;67400;49.360;8.266;2023-01-29T14:21:51;14.88;;;7.53;;
78156;SDS011;67400;49.360;8.266;2023-01-29T14:24:34;14.18;;;7.18;;
78156;SDS011;67400;49.360;8.266;2023-01-29T14:25:36;13.07;;;6.88;;
78156;SDS011;67400;49.360;8.266;2023-01-29T14:27:47;12.63;;;6.07;;
78156;SDS011;67400;49.360;8.266;2023-01-29T14:29:14;14.13;;;7.15;;
78156;SDS011;67400;49.360;8.266;2023-01-29T14:30:16;15.55;;;8.02;;
78156;SDS011;67400;49.360;8.266;2023-01-29T14:31:30;13.52;;;7.40;;
78156;SDS011;67400;49.360;8.266;2023-01-29T14:32:37;12.02;;;6.80;;
78156;SDS011;67400;49.360;8.266;2023-01-29T14:33:39;15.23;;;7.30;;
78156;SDS011;67400;49.360;8.266;2023-01-29T14:34:44;13.10;;;7.20;;
78156;SDS011;67400;49.360;8.266;2023-01-29T14:35:50;17.55;;;8.98;;
78156;SDS011;67400;49.360;8.266;2023-01-29T14:36:53;17.17;;;7.57;;
78156;SDS011;67400;49.360;8.266;2023-01-29T14:37:56;16.30;;;7.85;;
78156;SDS011;67400;49.360;8.266;2023-01-29T14:38:58;13.80;;;7.20;;
78156;SDS011;67400;49.360;8.266;2023-01-29T14:42:28;16.60;;;7.97;;
78156;SDS011;67400;49.360;8.266;2023-01-29T14:43:32;14.30;;;6.80;;
78156;SDS011;67400;49.360;8.266;2023-01-29T14:45:46;16.45;;;8.70;;
78156;SDS011;67400;49.360;8.266;2023-01-29T14:46:48;19.35;;;8.60;;
78156;SDS011;67400;49.360;8.266;2023-01-29T14:48:50;15.10;;;7.78;;
78156;SDS011;67400;49.360;8.266;2023-01-29T14:49:55;19.05;;;9.63;;
78156;SDS011;67400;49.360;8.266;2023-01-29T14:50:57;18.90;;;9.52;;
78156;SDS011;67400;49.360;8.266;2023-01-29T14:51:58;16.33;;;8.32;;
78156;SDS011;67400;49.360;8.266;2023-01-29T14:53:09;13.48;;;7.00;;
78156;SDS011;67400;49.360;8.266;2023-01-29T14:54:16;15.13;;;7.57;;
78156;SDS011;67400;49.360;8.266;2023-01-29T14:55:25;15.13;;;7.53;;
78156;SDS011;67400;49.360;8.266;2023-01-29T14:57:34;14.02;;;8.07;;
78156;SDS011;67400;49.360;8.266;2023-01-29T14:59:56;15.75;;;8.15;;
78156;SDS011;67400;49.360;8.266;2023-01-29T15:01:01;15.40;;;8.45;;
78156;SDS011;67400;49.360;8.266;2023-01-29T15:02:18;16.23;;;8.13;;
78156;SDS011;67400;49.360;8.266;2023-01-29T15:04:02;15.73;;;7.25;;
78156;SDS011;67400;49.360;8.266;2023-01-29T15:04:50;13.93;;;7.22;;
78156;SDS011;67400;49.360;8.266;2023-01-29T15:05:53;16.35;;;7.82;;
78156;SDS011;67400;49.360;8.266;2023-01-29T15:06:57;15.73;;;8.05;;
78156;SDS011;67400;49.360;8.266;2023-01-29T15:08:02;14.52;;;7.85;;
78156;SDS011;67400;49.360;8.266;2023-01-29T15:09:13;16.05;;;7.57;;
78156;SDS011;67400;49.360;8.266;2023-01-29T15:10:18;15.68;;;7.25;;
78156;SDS011;67400;49.360;8.266;2023-01-29T15:11:24;14.00;;;7.05;;
78156;SDS011;67400;49.360;8.266;2023-01-29T15:12:47;18.30;;;8.00;;
78156;SDS011;67400;49.360;8.266;2023-01-29T15:13:54;13.25;;;7.32;;
78156;SDS011;67400;49.360;8.266;2023-01-29T15:16:05;13.20;;;7.18;;
78156;SDS011;67400;49.360;8.266;2023-01-29T15:19:49;15.43;;;7.57;;
78156;SDS011;67400;49.360;8.266;2023-01-29T15:20:50;16.15;;;7.55;;
78156;SDS011;67400;49.360;8.266;2023-01-29T15:23:32;14.40;;;7.65;;
78156;SDS011;67400;49.360;8.266;2023-01-29T15:24:34;16.77;;;7.68;;
78156;SDS011;67400;49.360;8.266;2023-01-29T15:25:35;14.57;;;7.32;;
78156;SDS011;67400;49.360;8.266;2023-01-29T15:26:37;13.43;;;6.95;;
78156;SDS011;67400;49.360;8.266;2023-01-29T15:27:41;16.40;;;8.23;;
78156;SDS011;67400;49.360;8.266;2023-01-29T15:28:43;12.00;;;7.05;;
78156;SDS011;67400;49.360;8.266;2023-01-29T15:29:51;13.20;;;7.15;;
78156;SDS011;67400;49.360;8.266;2023-01-29T15:30:54;12.95;;;7.13;;
78156;SDS011;67400;49.360;8.266;2023-01-29T15:31:55;12.63;;;6.88;;
78156;SDS011;67400;49.360;8.266;2023-01-29T15:32:57;12.63;;;7.05;;
78156;SDS011;67400;49.360;8.266;2023-01-29T15:33:58;13.38;;;7.07;;
78156;SDS011;67400;49.360;8.266;2023-01-29T15:35:09;15.18;;;7.00;;
78156;SDS011;67400;49.360;8.266;2023-01-29T15:36:21;14.70;;;7.80;;
78156;SDS011;67400;49.360;8.266;2023-01-29T15:37:27;13.38;;;6.82;;
78156;SDS011;67400;49.360;8.266;2023-01-29T15:38:29;15.82;;;8.25;;
78156;SDS011;67400;49.360;8.266;2023-01-29T15:39:30;17.55;;;7.78;;
78156;SDS011;67400;49.360;8.266;2023-01-29T15:40:31;12.15;;;6.80;;
78156;SDS011;67400;49.360;8.266;2023-01-29T15:41:32;17.17;;;7.88;;
78156;SDS011;67400;49.360;8.266;2023-01-29T15:42:41;18.40;;;8.20;;
78156;SDS011;67400;49.360;8.266;2023-01-29T15:43:44;15.38;;;8.60;;
78156;SDS011;67400;49.360;8.266;2023-01-29T15:44:45;15.82;;;7.38;;
78156;SDS011;67400;49.360;8.266;2023-01-29T15:45:47;17.15;;;7.47;;
78156;SDS011;67400;49.360;8.266;2023-01-29T15:46:52;13.95;;;7.03;;
78156;SDS011;67400;49.360;8.266;2023-01-29T15:47:56;16.73;;;7.80;;
78156;SDS011;67400;49.360;8.266;2023-01-29T15:48:59;14.02;;;7.25;;
78156;SDS011;67400;49.360;8.266;2023-01-29T15:50:01;15.40;;;7.32;;
78156;SDS011;67400;49.360;8.266;2023-01-29T15:51:04;18.45;;;7.32;;
78156;SDS011;67400;49.360;8.266;2023-01-29T15:52:07;16.98;;;7.43;;
78156;SDS011;67400;49.360;8.266;2023-01-29T15:53:13;13.98;;;7.60;;
78156;SDS011;67400;49.360;8.266;2023-01-29T15:54:35;15.85;;;7.72;;
78156;SDS011;67400;49.360;8.266;2023-01-29T15:55:55;16.02;;;7.43;;
78156;SDS011;67400;49.360;8.266;2023-01-29T15:57:21;14.48;;;6.50;;
78156;SDS011;67400;49.360;8.266;2023-01-29T15:58:41;13.88;;;7.15;;
78156;SDS011;67400;49.360;8.266;2023-01-29T16:00:02;16.15;;;7.25;;
78156;SDS011;67400;49.360;8.266;2023-01-29T16:01:25;15.32;;;7.72;;
78156;SDS011;67400;49.360;8.266;2023-01-29T16:02:44;18.13;;;7.63;;
78156;SDS011;67400;49.360;8.266;2023-01-29T16:04:04;16.98;;;7.75;;
78156;SDS011;67400;49.360;8.266;2023-01-29T16:05:24;18.10;;;8.75;;
78156;SDS011;67400;49.360;8.266;2023-01-29T16:06:45;18.30;;;8.13;;
78156;SDS011;67400;49.360;8.266;2023-01-29T16:08:05;15.77;;;7.30;;
78156;SDS011;67400;49.360;8.266;2023-01-29T16:09:30;20.00;;;8.52;;
78156;SDS011;67400;49.360;8.266;2023-01-29T16:11:03;13.77;;;7.30;;
78156;SDS011;67400;49.360;8.266;2023-01-29T16:12:24;16.15;;;8.10;;
78156;SDS011;67400;49.360;8.266;2023-01-29T16:13:44;16.00;;;7.30;;
78156;SDS011;67400;49.360;8.266;2023-01-29T16:15:09;16.50;;;7.78;;
78156;SDS011;67400;49.360;8.266;2023-01-29T16:16:33;18.08;;;8.52;;
78156;SDS011;67400;49.360;8.266;2023-01-29T16:17:52;23.00;;;9.57;;
78156;SDS011;67400;49.360;8.266;2023-01-29T16:19:19;39.08;;;15.18;;
78156;SDS011;67400;49.360;8.266;2023-01-29T16:20:43;46.28;;;17.73;;
78156;SDS011;67400;49.360;8.266;2023-01-29T16:22:03;45.88;;;17.98;;
78156;SDS011;67400;49.360;8.266;2023-01-29T16:23:25;45.50;;;17.40;;
78156;SDS011;67400;49.360;8.266;2023-01-29T16:24:45;44.95;;;18.80;;
78156;SDS011;67400;49.360;8.266;2023-01-29T16:26:07;36.83;;;16.27;;
78156;SDS011;67400;49.360;8.266;2023-01-29T16:27:31;27.08;;;12.75;;
78156;SDS011;67400;49.360;8.266;2023-01-29T16:28:51;23.52;;;12.10;;
78156;SDS011;67400;49.360;8.266;2023-01-29T16:30:14;22.92;;;10.93;;
78156;SDS011;67400;49.360;8.266;2023-01-29T16:31:34;19.15;;;9.90;;
78156;SDS011;67400;49.360;8.266;2023-01-29T16:33:01;16.23;;;8.38;;
78156;SDS011;67400;49.360;8.266;2023-01-29T16:35:41;15.57;;;7.68;;
78156;SDS011;67400;49.360;8.266;2023-01-29T16:37:02;17.75;;;8.60;;
78156;SDS011;67400;49.360;8.266;2023-01-29T16:38:26;17.75;;;8.65;;
78156;SDS011;67400;49.360;8.266;2023-01-29T16:39:48;17.55;;;8.90;;
78156;SDS011;67400;49.360;8.266;2023-01-29T16:42:33;18.25;;;8.55;;
78156;SDS011;67400;49.360;8.266;2023-01-29T16:44:02;14.55;;;8.30;;
78156;SDS011;67400;49.360;8.266;2023-01-29T16:45:30;15.63;;;8.18;;
78156;SDS011;67400;49.360;8.266;2023-01-29T16:46:50;15.60;;;8.13;;
78156;SDS011;67400;49.360;8.266;2023-01-29T16:48:25;16.52;;;8.45;;
78156;SDS011;67400;49.360;8.266;2023-01-29T16:49:49;16.33;;;9.10;;
78156;SDS011;67400;49.360;8.266;2023-01-29T16:51:14;16.60;;;8.35;;
78156;SDS011;67400;49.360;8.266;2023-01-29T16:52:35;16.77;;;8.02;;
78156;SDS011;67400;49.360;8.266;2023-01-29T16:54:11;18.17;;;9.38;;
78156;SDS011;67400;49.360;8.266;2023-01-29T16:55:36;21.33;;;9.60;;
78156;SDS011;67400;49.360;8.266;2023-01-29T16:56:57;21.15;;;10.02;;
78156;SDS011;67400;49.360;8.266;2023-01-29T16:58:20;22.23;;;9.85;;
78156;SDS011;67400;49.360;8.266;2023-01-29T16:59:40;21.75;;;10.18;;
78156;SDS011;67400;49.360;8.266;2023-01-29T17:01:09;23.23;;;11.70;;
78156;SDS011;67400;49.360;8.266;2023-01-29T17:02:30;23.20;;;10.65;;
78156;SDS011;67400;49.360;8.266;2023-01-29T17:04:26;21.17;;;10.48;;
78156;SDS011;67400;49.360;8.266;2023-01-29T17:05:39;50.08;;;16.83;;
78156;SDS011;67400;49.360;8.266;2023-01-29T17:06:59;39.67;;;14.52;;
78156;SDS011;67400;49.360;8.266;2023-01-29T17:08:24;32.70;;;13.60;;
78156;SDS011;67400;49.360;8.266;2023-01-29T17:09:44;27.50;;;11.88;;
78156;SDS011;67400;49.360;8.266;2023-01-29T17:11:07;19.35;;;9.90;;
78156;SDS011;67400;49.360;8.266;2023-01-29T17:12:27;20.88;;;10.98;;
78156;SDS011;67400;49.360;8.266;2023-01-29T17:13:48;17.00;;;9.82;;
78156;SDS011;67400;49.360;8.266;2023-01-29T17:15:26;20.27;;;10.40;;
78156;SDS011;67400;49.360;8.266;2023-01-29T17:16:49;21.38;;;10.30;;
78156;SDS011;67400;49.360;8.266;2023-01-29T17:18:28;17.88;;;9.02;;
78156;SDS011;67400;49.360;8.266;2023-01-29T17:19:48;17.75;;;8.25;;
78156;SDS011;67400;49.360;8.266;2023-01-29T17:21:07;18.02;;;8.68;;
78156;SDS011;67400;49.360;8.266;2023-01-29T17:22:27;18.55;;;8.73;;
78156;SDS011;67400;49.360;8.266;2023-01-29T17:23:46;17.63;;;8.02;;
78156;SDS011;67400;49.360;8.266;2023-01-29T17:25:06;16.85;;;8.30;;
78156;SDS011;67400;49.360;8.266;2023-01-29T17:26:27;21.80;;;9.45;;
78156;SDS011;67400;49.360;8.266;2023-01-29T17:27:48;17.73;;;9.02;;
78156;SDS011;67400;49.360;8.266;2023-01-29T17:29:16;20.88;;;11.38;;
78156;SDS011;67400;49.360;8.266;2023-01-29T17:30:36;16.95;;;9.30;;
78156;SDS011;67400;49.360;8.266;2023-01-29T17:31:56;16.67;;;9.25;;
78156;SDS011;67400;49.360;8.266;2023-01-29T17:33:18;16.23;;;7.72;;
78156;SDS011;67400;49.360;8.266;2023-01-29T17:34:43;14.40;;;7.78;;